createdAt,value
2019-05-14T00:00:13.916Z,64.10
2019-05-14T00:01:19.226Z,64.00
2019-05-14T00:02:24.959Z,63.30
2019-05-14T00:03:31.124Z,63.90
2019-05-14T00:04:37.033Z,63.80
2019-05-14T00:05:42.527Z,63.70
2019-05-14T00:06:48.352Z,63.80
2019-05-14T00:07:53.486Z,64.00
2019-05-14T00:09:01.378Z,64.10
2019-05-14T00:10:06.682Z,65.10
2019-05-14T00:11:13.057Z,65.50
2019-05-14T00:12:18.587Z,66.00
2019-05-14T00:13:24.165Z,65.60
2019-05-14T00:14:38.956Z,66.10
2019-05-14T00:15:36.509Z,67.70
2019-05-14T00:16:42.391Z,67.20
2019-05-14T00:17:48.352Z,67.50
2019-05-14T00:18:54.443Z,68.40
2019-05-14T00:20:07.212Z,68.30
2019-05-14T00:21:06.993Z,68.40
2019-05-14T00:22:12.569Z,69.40
2019-05-14T00:23:18.668Z,69.30
2019-05-14T00:24:24.244Z,69.90
2019-05-14T00:25:31.341Z,70.20
2019-05-14T00:26:36.641Z,70.00
2019-05-14T00:27:42.004Z,70.40
2019-05-14T00:28:47.818Z,70.20
2019-05-14T00:29:52.989Z,70.20
2019-05-14T00:30:58.561Z,70.10
2019-05-14T00:32:04.565Z,69.80
2019-05-14T00:33:11.567Z,70.60
2019-05-14T00:34:16.937Z,71.90
2019-05-14T00:35:22.498Z,72.60
2019-05-14T00:36:27.633Z,72.00
2019-05-14T00:37:33.213Z,71.70
2019-05-14T00:38:38.352Z,72.00
2019-05-14T00:39:44.072Z,71.30
2019-05-14T00:40:51.176Z,71.20
2019-05-14T00:41:56.457Z,71.30
2019-05-14T00:43:02.612Z,72.70
2019-05-14T00:44:08.614Z,73.70
2019-05-14T00:45:14.304Z,74.20
2019-05-14T00:46:21.138Z,74.10
2019-05-14T00:47:26.551Z,74.50
2019-05-14T00:48:32.199Z,74.70
2019-05-14T00:49:37.331Z,74.00
2019-05-14T00:50:42.976Z,74.40
2019-05-14T00:51:48.074Z,74.10
2019-05-14T00:52:53.712Z,74.10
2019-05-14T00:53:58.811Z,74.20
2019-05-14T00:55:04.518Z,74.10
2019-05-14T00:56:11.031Z,73.90
2019-05-14T00:57:17.049Z,74.40
2019-05-14T00:58:22.089Z,74.90
2019-05-14T00:59:27.737Z,75.40
2019-05-14T01:00:32.984Z,75.40
2019-05-14T01:01:38.625Z,75.50
2019-05-14T01:02:44.024Z,75.60
2019-05-14T01:03:51.915Z,76.40
2019-05-14T01:04:57.561Z,76.90
2019-05-14T01:06:03.274Z,77.00
2019-05-14T01:07:08.477Z,77.00
2019-05-14T01:08:14.133Z,76.70
2019-05-14T01:09:19.236Z,77.00
2019-05-14T01:10:25.508Z,77.40
2019-05-14T01:11:31.512Z,77.70
2019-05-14T01:12:37.322Z,77.40
2019-05-14T01:13:42.351Z,77.20
2019-05-14T01:14:47.939Z,77.30
2019-05-14T01:15:52.994Z,77.40
2019-05-14T01:16:58.635Z,78.50
2019-05-14T01:18:03.708Z,78.20
2019-05-14T01:19:09.420Z,78.30
2019-05-14T01:20:14.845Z,78.70
2019-05-14T01:21:21.989Z,79.00
2019-05-14T01:22:28.209Z,79.10
2019-05-14T01:23:33.872Z,78.90
2019-05-14T01:24:38.870Z,79.20
2019-05-14T01:25:44.557Z,79.20
2019-05-14T01:26:52.087Z,79.50
2019-05-14T01:27:57.049Z,79.10
2019-05-14T01:29:02.122Z,79.50
2019-05-14T01:30:08.317Z,80.10
2019-05-14T01:31:14.845Z,80.30
2019-05-14T01:32:22.092Z,80.70
2019-05-14T01:33:28.355Z,80.10
2019-05-14T01:34:33.989Z,79.80
2019-05-14T01:35:39.089Z,79.90
2019-05-14T01:36:44.668Z,79.70
2019-05-14T01:37:51.977Z,80.30
2019-05-14T01:38:58.219Z,80.70
2019-05-14T01:40:03.257Z,80.80
2019-05-14T01:41:09.055Z,80.90
2019-05-14T01:42:14.113Z,81.40
2019-05-14T01:43:21.853Z,81.30
2019-05-14T01:44:26.445Z,80.80
2019-05-14T01:45:32.597Z,81.00
2019-05-14T01:46:37.689Z,81.40
2019-05-14T01:47:43.265Z,81.50
2019-05-14T01:48:48.284Z,81.60
2019-05-14T01:49:53.933Z,81.70
2019-05-14T01:51:01.306Z,82.00
2019-05-14T01:52:06.309Z,82.20
2019-05-14T01:53:12.629Z,82.60
2019-05-14T01:54:18.184Z,82.20
2019-05-14T01:55:23.272Z,82.60
2019-05-14T01:56:28.982Z,82.50
2019-05-14T01:57:34.156Z,82.30
2019-05-14T01:58:41.731Z,82.80
2019-05-14T01:59:46.464Z,83.00
2019-05-14T02:00:52.475Z,83.60
2019-05-14T02:01:57.828Z,83.30
2019-05-14T02:03:03.533Z,83.10
2019-05-14T02:04:08.564Z,83.30
2019-05-14T02:05:14.337Z,83.50
2019-05-14T02:06:21.303Z,83.50
2019-05-14T02:07:26.688Z,83.60
2019-05-14T02:08:32.393Z,83.70
2019-05-14T02:09:38.165Z,83.60
2019-05-14T02:10:43.192Z,83.40
2019-05-14T02:11:48.794Z,83.30
2019-05-14T02:12:53.899Z,83.60
2019-05-14T02:13:59.551Z,84.00
2019-05-14T02:15:04.788Z,84.20
2019-05-14T02:16:13.027Z,84.20
2019-05-14T02:17:17.601Z,84.20
2019-05-14T02:18:23.368Z,84.00
2019-05-14T02:19:28.461Z,84.00
2019-05-14T02:20:34.005Z,83.90
2019-05-14T02:21:39.020Z,84.10
2019-05-14T02:22:44.656Z,84.60
2019-05-14T02:23:51.396Z,84.50
2019-05-14T02:24:57.414Z,84.60
2019-05-14T02:26:02.831Z,85.10
2019-05-14T02:27:08.388Z,85.30
2019-05-14T02:28:13.525Z,85.50
2019-05-14T02:29:21.299Z,85.40
2019-05-14T02:30:41.362Z,85.30
2019-05-14T02:31:33.728Z,85.70
2019-05-14T02:32:40.626Z,85.80
2019-05-14T02:33:50.021Z,85.80
2019-05-14T02:34:53.274Z,86.00
2019-05-14T02:35:59.984Z,86.20
2019-05-14T02:37:08.929Z,86.40
2019-05-14T02:38:12.815Z,86.50
2019-05-14T02:39:19.668Z,86.60
2019-05-14T02:40:25.444Z,86.70
2019-05-14T02:41:30.620Z,86.70
2019-05-14T02:42:39.683Z,86.70
2019-05-14T02:43:42.988Z,86.90
2019-05-14T02:44:48.918Z,86.80
2019-05-14T02:46:09.068Z,87.10
2019-05-14T02:47:02.890Z,86.90
2019-05-14T02:48:09.611Z,86.90
2019-05-14T02:49:15.462Z,87.00
2019-05-14T02:50:21.561Z,87.00
2019-05-14T02:51:29.889Z,87.20
2019-05-14T02:52:33.974Z,87.00
2019-05-14T02:53:39.739Z,87.20
2019-05-14T02:54:44.808Z,87.30
2019-05-14T02:55:50.449Z,87.40
2019-05-14T02:56:55.597Z,87.50
2019-05-14T02:58:01.225Z,87.80
2019-05-14T02:59:09.628Z,88.00
2019-05-14T03:00:14.047Z,87.60
2019-05-14T03:01:20.073Z,87.70
2019-05-14T03:02:25.919Z,87.80
2019-05-14T03:03:31.133Z,87.90
2019-05-14T03:04:39.456Z,88.10
2019-05-14T03:05:43.563Z,87.90
2019-05-14T03:06:49.831Z,88.10
2019-05-14T03:07:55.274Z,87.90
2019-05-14T03:09:00.876Z,87.70
2019-05-14T03:10:10.068Z,87.90
2019-05-14T03:11:15.153Z,88.30
2019-05-14T03:12:20.245Z,88.60
2019-05-14T03:13:29.265Z,89.00
2019-05-14T03:14:32.630Z,89.20
2019-05-14T03:15:39.099Z,89.30
2019-05-14T03:16:44.341Z,89.30
2019-05-14T03:17:50.153Z,89.30
2019-05-14T03:18:55.205Z,89.30
2019-05-14T03:20:00.767Z,89.30
2019-05-14T03:21:09.114Z,89.40
2019-05-14T03:22:14.950Z,89.10
2019-05-14T03:23:23.030Z,89.70
2019-05-14T03:24:28.795Z,89.20
2019-05-14T03:25:34.183Z,89.20
2019-05-14T03:26:40.086Z,89.30
2019-05-14T03:27:45.260Z,89.40
2019-05-14T03:28:50.853Z,89.50
2019-05-14T03:29:58.497Z,89.50
2019-05-14T03:31:04.176Z,89.30
2019-05-14T03:32:13.268Z,89.20
2019-05-14T03:33:21.767Z,89.50
2019-05-14T03:34:23.772Z,89.80
2019-05-14T03:35:41.638Z,90.00
2019-05-14T03:36:36.209Z,90.10
2019-05-14T03:37:41.952Z,90.00
2019-05-14T03:38:49.978Z,90.10
2019-05-14T03:39:54.406Z,90.10
2019-05-14T03:41:00.427Z,90.00
2019-05-14T03:42:09.184Z,90.00
2019-05-14T03:43:13.091Z,90.00
2019-05-14T03:44:19.963Z,90.00
2019-05-14T03:45:25.329Z,90.00
2019-05-14T03:46:44.200Z,90.00
2019-05-14T03:47:39.441Z,90.00
2019-05-14T03:48:45.125Z,90.00
2019-05-14T03:49:50.212Z,90.00
2019-05-14T03:50:55.913Z,90.00
2019-05-14T03:52:00.954Z,90.20
2019-05-14T03:53:09.862Z,90.30
2019-05-14T03:54:13.396Z,90.20
2019-05-14T03:55:20.231Z,90.20
2019-05-14T03:56:25.754Z,90.10
2019-05-14T03:57:31.485Z,90.10
2019-05-14T03:58:39.337Z,90.00
2019-05-14T03:59:43.964Z,89.90
2019-05-14T04:00:52.337Z,89.70
2019-05-14T04:01:59.639Z,89.30
2019-05-14T04:03:09.448Z,89.00
2019-05-14T04:04:13.478Z,88.60
2019-05-14T04:05:22.522Z,88.20
2019-05-14T04:06:30.072Z,87.50
2019-05-14T04:07:39.339Z,87.00
2019-05-14T04:08:45.002Z,86.30
2019-05-14T04:09:51.434Z,85.90
2019-05-14T04:10:59.145Z,85.80
2019-05-14T04:12:09.686Z,85.80
2019-05-14T04:13:19.615Z,85.70
2019-05-14T04:14:24.930Z,85.40
2019-05-14T04:15:33.760Z,85.10
2019-05-14T04:16:59.522Z,85.00
2019-05-14T04:17:50.391Z,84.50
2019-05-14T04:19:01.556Z,84.30
2019-05-14T04:20:09.408Z,83.80
2019-05-14T04:21:16.357Z,83.20
2019-05-14T04:22:24.166Z,82.70
2019-05-14T04:23:30.052Z,82.40
2019-05-14T04:24:41.426Z,82.10
2019-05-14T04:25:49.785Z,81.70
2019-05-14T04:27:06.274Z,81.20
2019-05-14T04:28:05.953Z,80.80
2019-05-14T04:29:14.122Z,80.50
2019-05-14T04:30:23.972Z,80.50
2019-05-14T04:31:31.456Z,80.60
2019-05-14T04:32:39.310Z,80.80
2019-05-14T04:33:50.063Z,80.60
2019-05-14T04:34:54.405Z,80.40
2019-05-14T04:36:00.519Z,80.40
2019-05-14T04:37:05.676Z,80.30
2019-05-14T04:38:11.349Z,80.00
2019-05-14T04:39:19.303Z,79.60
2019-05-14T04:40:24.060Z,79.10
2019-05-14T04:41:29.990Z,78.90
2019-05-14T04:42:35.888Z,78.80
2019-05-14T04:43:40.937Z,78.50
2019-05-14T04:44:50.380Z,77.20
2019-05-14T04:45:54.826Z,75.10
2019-05-14T04:47:21.334Z,73.10
2019-05-14T04:48:24.218Z,71.90
2019-05-14T04:49:14.584Z,70.10
2019-05-14T04:50:20.277Z,67.60
2019-05-14T04:51:26.118Z,65.00
2019-05-14T04:52:31.216Z,63.40
2019-05-14T04:53:39.405Z,62.60
2019-05-14T04:54:43.813Z,61.80
2019-05-14T04:55:49.700Z,61.10
2019-05-14T04:56:54.997Z,60.30
2019-05-14T04:58:00.839Z,59.30
2019-05-14T04:59:10.043Z,57.30
2019-05-14T05:00:14.350Z,55.30
2019-05-14T05:01:20.526Z,54.00
2019-05-14T05:02:29.833Z,53.60
2019-05-14T05:03:33.437Z,51.80
2019-05-14T05:04:41.223Z,49.80
2019-05-14T05:05:45.991Z,48.30
2019-05-14T05:06:51.557Z,46.50
2019-05-14T05:07:59.440Z,44.60
2019-05-14T05:09:05.420Z,43.10
2019-05-14T05:10:11.185Z,41.80
2019-05-14T05:11:18.153Z,39.50
2019-05-14T05:12:23.512Z,37.90
2019-05-14T05:13:29.564Z,36.60
2019-05-14T05:14:34.859Z,35.90
2019-05-14T05:15:40.499Z,34.90
2019-05-14T05:16:45.553Z,33.90
2019-05-14T05:17:53.103Z,31.90
2019-05-14T05:18:59.447Z,31.50
2019-05-14T05:20:09.906Z,30.80
2019-05-14T05:21:14.937Z,30.10
2019-05-14T05:22:20.560Z,29.80
2019-05-14T05:23:27.905Z,30.00
2019-05-14T05:24:33.115Z,28.80
2019-05-14T05:25:38.483Z,28.80
2019-05-14T05:26:44.253Z,30.00
2019-05-14T05:27:49.382Z,29.70
2019-05-14T05:29:05.669Z,28.50
2019-05-14T05:30:01.745Z,29.30
2019-05-14T05:31:09.243Z,29.00
2019-05-14T05:32:14.285Z,29.00
2019-05-14T05:33:20.211Z,29.00
2019-05-14T05:34:25.382Z,28.90
2019-05-14T05:35:32.289Z,29.00
2019-05-14T05:36:38.011Z,29.40
2019-05-14T05:37:44.230Z,30.00
2019-05-14T05:38:50.595Z,29.20
2019-05-14T05:39:58.232Z,28.80
2019-05-14T05:41:02.978Z,29.10
2019-05-14T05:42:09.348Z,29.20
2019-05-14T05:43:14.669Z,28.30
2019-05-14T05:44:20.325Z,28.30
2019-05-14T05:45:25.422Z,29.10
2019-05-14T05:46:31.173Z,29.30
2019-05-14T05:47:38.838Z,29.60
2019-05-14T05:48:43.686Z,29.90
2019-05-14T05:49:49.016Z,29.40
2019-05-14T05:50:54.826Z,29.70
2019-05-14T05:51:59.930Z,29.10
2019-05-14T05:53:05.577Z,28.30
2019-05-14T05:54:10.654Z,27.10
2019-05-14T05:55:16.296Z,27.10
2019-05-14T05:56:21.511Z,26.50
2019-05-14T05:57:28.314Z,26.80
2019-05-14T05:58:36.313Z,26.40
2019-05-14T05:59:41.981Z,26.10
2019-05-14T06:00:49.512Z,27.40
2019-05-14T06:01:54.409Z,26.60
2019-05-14T06:02:59.545Z,25.30
2019-05-14T06:04:05.315Z,25.40
2019-05-14T06:05:10.547Z,25.20
2019-05-14T06:06:16.140Z,25.50
2019-05-14T06:07:21.220Z,25.30
2019-05-14T06:08:28.206Z,24.70
2019-05-14T06:09:33.687Z,25.10
2019-05-14T06:10:40.059Z,24.60
2019-05-14T06:11:45.330Z,24.90
2019-05-14T06:12:51.139Z,24.80
2019-05-14T06:13:58.720Z,24.40
2019-05-14T06:15:05.537Z,24.00
2019-05-14T06:16:11.629Z,24.10
2019-05-14T06:17:19.115Z,23.60
2019-05-14T06:18:24.202Z,22.70
2019-05-14T06:19:29.913Z,21.70
2019-05-14T06:20:35.010Z,22.20
2019-05-14T06:21:40.641Z,21.40
2019-05-14T06:22:45.661Z,21.50
2019-05-14T06:23:51.409Z,20.50
2019-05-14T06:24:58.427Z,21.30
2019-05-14T06:26:03.866Z,22.00
2019-05-14T06:27:09.569Z,22.00
2019-05-14T06:28:15.384Z,21.30
2019-05-14T06:29:20.514Z,19.90
2019-05-14T06:30:35.309Z,20.00
2019-05-14T06:31:40.392Z,20.80
2019-05-14T06:32:48.605Z,20.90
2019-05-14T06:33:52.817Z,20.30
2019-05-14T06:34:59.397Z,20.80
2019-05-14T06:36:08.432Z,20.40
2019-05-14T06:37:12.968Z,20.60
2019-05-14T06:38:18.654Z,20.20
2019-05-14T06:39:24.367Z,19.90
2019-05-14T06:40:29.431Z,20.90
2019-05-14T06:41:35.105Z,21.50
2019-05-14T06:42:40.270Z,21.50
2019-05-14T06:43:48.417Z,21.10
2019-05-14T06:44:52.932Z,19.60
2019-05-14T06:45:58.811Z,20.50
2019-05-14T06:47:04.905Z,20.80
2019-05-14T06:48:10.448Z,20.70
2019-05-14T06:49:15.582Z,20.90
2019-05-14T06:50:21.158Z,20.00
2019-05-14T06:51:28.649Z,19.60
2019-05-14T06:52:33.672Z,18.90
2019-05-14T06:53:39.373Z,19.50
2019-05-14T06:54:45.202Z,20.00
2019-05-14T06:55:50.261Z,19.80
2019-05-14T06:56:58.122Z,19.80
2019-05-14T06:58:03.015Z,20.40
2019-05-14T06:59:09.144Z,20.30
2019-05-14T07:00:18.819Z,19.80
2019-05-14T07:01:23.529Z,19.80
2019-05-14T07:02:28.766Z,19.40
2019-05-14T07:03:34.386Z,19.30
2019-05-14T07:04:39.686Z,18.50
2019-05-14T07:05:45.396Z,18.90
2019-05-14T07:06:50.518Z,18.90
2019-05-14T07:07:59.532Z,18.70
2019-05-14T07:09:04.699Z,18.30
2019-05-14T07:10:10.871Z,18.00
2019-05-14T07:11:15.982Z,17.90
2019-05-14T07:12:21.632Z,18.20
2019-05-14T07:13:28.609Z,18.20
2019-05-14T07:14:33.954Z,18.00
2019-05-14T07:15:39.165Z,17.10
2019-05-14T07:16:44.733Z,16.70
2019-05-14T07:17:49.817Z,17.40
2019-05-14T07:18:55.716Z,18.10
2019-05-14T07:20:00.793Z,18.20
2019-05-14T07:21:08.249Z,19.50
2019-05-14T07:22:13.274Z,19.00
2019-05-14T07:23:19.511Z,19.40
2019-05-14T07:24:24.799Z,19.70
2019-05-14T07:25:30.448Z,19.10
2019-05-14T07:26:35.460Z,19.40
2019-05-14T07:27:41.141Z,19.30
2019-05-14T07:28:48.564Z,19.80
2019-05-14T07:29:53.466Z,19.60
2019-05-14T07:30:59.478Z,19.50
2019-05-14T07:32:05.236Z,18.40
2019-05-14T07:33:10.299Z,18.40
2019-05-14T07:34:15.953Z,19.00
2019-05-14T07:35:21.021Z,19.70
2019-05-14T07:36:29.065Z,20.30
2019-05-14T07:37:33.398Z,20.10
2019-05-14T07:38:39.394Z,19.70
2019-05-14T07:39:45.602Z,19.30
2019-05-14T07:40:52.239Z,18.30
2019-05-14T07:41:59.088Z,17.90
2019-05-14T07:43:04.588Z,18.30
2019-05-14T07:44:09.769Z,18.70
2019-05-14T07:45:15.718Z,18.70
2019-05-14T07:46:20.835Z,17.90
2019-05-14T07:47:26.396Z,18.50
2019-05-14T07:48:31.560Z,19.40
2019-05-14T07:49:38.579Z,20.00
2019-05-14T07:50:47.725Z,18.70
2019-05-14T07:51:51.217Z,19.00
2019-05-14T07:52:58.546Z,18.80
2019-05-14T07:54:03.580Z,19.30
2019-05-14T07:55:09.406Z,18.90
2019-05-14T07:56:15.113Z,18.60
2019-05-14T07:57:20.251Z,19.00
2019-05-14T07:58:28.186Z,18.90
2019-05-14T07:59:32.843Z,18.90
2019-05-14T08:00:40.160Z,19.40
2019-05-14T08:01:45.151Z,20.30
2019-05-14T08:02:50.881Z,20.90
2019-05-14T08:03:56.057Z,20.30
2019-05-14T08:05:01.713Z,20.50
2019-05-14T08:06:08.335Z,20.20
2019-05-14T08:07:14.261Z,19.50
2019-05-14T08:08:19.386Z,19.30
2019-05-14T08:09:25.293Z,18.90
2019-05-14T08:10:30.328Z,19.70
2019-05-14T08:11:38.558Z,19.00
2019-05-14T08:12:42.824Z,19.20
2019-05-14T08:13:49.443Z,19.50
2019-05-14T08:15:13.125Z,19.40
2019-05-14T08:16:02.429Z,19.80
2019-05-14T08:17:08.665Z,20.00
2019-05-14T08:18:14.600Z,21.00
2019-05-14T08:19:26.567Z,20.90
2019-05-14T08:20:30.182Z,20.10
2019-05-14T08:21:35.222Z,19.90
2019-05-14T08:22:40.919Z,19.20
2019-05-14T08:23:47.935Z,20.20
2019-05-14T08:24:53.381Z,20.50
2019-05-14T08:25:58.834Z,19.80
2019-05-14T08:27:04.603Z,20.20
2019-05-14T08:28:09.899Z,20.30
2019-05-14T08:29:17.977Z,21.00
2019-05-14T08:30:23.135Z,20.80
2019-05-14T08:31:29.275Z,21.10
2019-05-14T08:32:34.514Z,21.20
2019-05-14T08:33:40.096Z,20.60
2019-05-14T08:34:45.121Z,21.20
2019-05-14T08:35:50.732Z,21.00
2019-05-14T08:36:55.764Z,19.90
2019-05-14T08:38:07.564Z,20.40
2019-05-14T08:39:08.916Z,20.00
2019-05-14T08:40:19.085Z,20.70
2019-05-14T08:41:23.293Z,20.90
2019-05-14T08:42:29.200Z,20.90
2019-05-14T08:43:34.499Z,20.70
2019-05-14T08:44:40.151Z,20.20
2019-05-14T08:45:45.567Z,19.80
2019-05-14T08:46:51.451Z,20.40
2019-05-14T08:47:58.652Z,21.00
2019-05-14T08:49:04.055Z,21.30
2019-05-14T08:50:09.502Z,21.30
2019-05-14T08:51:15.090Z,22.40
2019-05-14T08:52:20.200Z,23.00
2019-05-14T08:53:25.820Z,22.20
2019-05-14T08:54:30.923Z,22.70
2019-05-14T08:55:38.159Z,22.10
2019-05-14T08:56:43.472Z,21.90
2019-05-14T08:57:49.232Z,21.90
2019-05-14T08:58:54.528Z,21.50
2019-05-14T09:00:00.262Z,21.80
2019-05-14T09:01:05.344Z,21.20
2019-05-14T09:02:11.068Z,22.50
2019-05-14T09:03:16.175Z,24.10
2019-05-14T09:04:22.844Z,24.40
2019-05-14T09:05:28.712Z,25.10
2019-05-14T09:06:34.598Z,25.30
2019-05-14T09:07:39.843Z,26.60
2019-05-14T09:08:45.405Z,27.80
2019-05-14T09:09:50.537Z,28.00
2019-05-14T09:10:58.786Z,28.10
2019-05-14T09:12:03.080Z,28.20
2019-05-14T09:13:08.761Z,28.50
2019-05-14T09:14:13.967Z,28.70
2019-05-14T09:15:19.693Z,29.20
2019-05-14T09:16:38.332Z,29.90
2019-05-14T09:17:32.626Z,30.90
2019-05-14T09:18:38.617Z,31.40
2019-05-14T09:19:58.811Z,31.00
2019-05-14T09:20:51.208Z,31.10
2019-05-14T09:21:58.882Z,32.20
2019-05-14T09:23:03.704Z,32.90
2019-05-14T09:24:09.667Z,33.80
2019-05-14T09:25:15.245Z,33.90
2019-05-14T09:26:21.121Z,33.90
2019-05-14T09:27:26.219Z,34.90
2019-05-14T09:28:31.792Z,35.70
2019-05-14T09:29:39.198Z,35.10
2019-05-14T09:30:44.202Z,34.30
2019-05-14T09:31:49.691Z,33.70
2019-05-14T09:32:55.584Z,32.90
2019-05-14T09:34:00.794Z,32.00
2019-05-14T09:35:09.495Z,31.40
2019-05-14T09:36:19.441Z,31.00
2019-05-14T09:37:20.753Z,30.40
2019-05-14T09:38:25.812Z,30.00
2019-05-14T09:39:31.444Z,30.10
2019-05-14T09:40:39.474Z,30.30
2019-05-14T09:41:44.017Z,30.80
2019-05-14T09:42:49.948Z,29.90
2019-05-14T09:43:58.585Z,30.60
2019-05-14T09:45:03.078Z,30.60
2019-05-14T09:46:09.229Z,31.10
2019-05-14T09:47:14.844Z,31.30
2019-05-14T09:48:20.565Z,31.20
2019-05-14T09:49:28.097Z,31.80
2019-05-14T09:50:33.121Z,32.20
2019-05-14T09:51:38.484Z,29.80
2019-05-14T09:52:44.203Z,28.20
2019-05-14T09:53:49.290Z,27.80
2019-05-14T09:54:55.000Z,28.00
2019-05-14T09:56:00.107Z,28.30
2019-05-14T09:57:08.145Z,28.40
2019-05-14T09:58:12.551Z,28.30
2019-05-14T09:59:18.654Z,28.90
2019-05-14T10:00:23.854Z,28.40
2019-05-14T10:01:29.579Z,27.60
2019-05-14T10:02:34.612Z,27.30
2019-05-14T10:03:40.372Z,27.00
2019-05-14T10:04:45.407Z,27.20
2019-05-14T10:05:51.100Z,26.30
2019-05-14T10:06:59.031Z,26.20
2019-05-14T10:08:04.743Z,26.00
2019-05-14T10:09:09.796Z,26.40
2019-05-14T10:10:19.366Z,26.40
2019-05-14T10:11:22.359Z,25.40
2019-05-14T10:12:28.045Z,25.70
2019-05-14T10:13:33.065Z,25.80
2019-05-14T10:14:39.484Z,26.70
2019-05-14T10:15:45.700Z,27.90
2019-05-14T10:16:51.388Z,28.50
2019-05-14T10:18:00.245Z,29.10
2019-05-14T10:19:03.741Z,29.70
2019-05-14T10:20:09.141Z,30.10
2019-05-14T10:21:14.980Z,30.60
2019-05-14T10:22:20.353Z,31.10
2019-05-14T10:23:28.385Z,30.80
2019-05-14T10:24:33.780Z,31.10
2019-05-14T10:25:42.369Z,30.50
2019-05-14T10:26:48.662Z,30.30
2019-05-14T10:27:53.573Z,28.90
2019-05-14T10:28:59.159Z,28.50
2019-05-14T10:30:09.255Z,27.80
2019-05-14T10:31:13.526Z,26.60
2019-05-14T10:32:19.238Z,25.90
2019-05-14T10:33:24.344Z,26.10
2019-05-14T10:34:29.938Z,25.50
2019-05-14T10:35:35.094Z,24.50
2019-05-14T10:36:40.780Z,24.90
2019-05-14T10:37:45.903Z,25.70
2019-05-14T10:38:51.569Z,25.20
2019-05-14T10:39:58.593Z,25.10
2019-05-14T10:41:04.210Z,25.50
2019-05-14T10:42:09.271Z,26.30
2019-05-14T10:43:14.893Z,27.20
2019-05-14T10:44:19.997Z,27.00
2019-05-14T10:45:25.651Z,26.70
2019-05-14T10:46:30.722Z,26.30
2019-05-14T10:47:38.862Z,25.50
2019-05-14T10:48:44.393Z,26.20
2019-05-14T10:49:50.084Z,26.00
2019-05-14T10:50:59.939Z,26.10
2019-05-14T10:52:02.574Z,25.80
2019-05-14T10:53:09.099Z,25.60
2019-05-14T10:54:22.269Z,24.80
2019-05-14T10:55:21.872Z,24.60
2019-05-14T10:56:29.736Z,25.30
2019-05-14T10:57:35.718Z,26.30
2019-05-14T10:58:41.376Z,26.40
2019-05-14T10:59:46.468Z,25.40
2019-05-14T11:00:52.102Z,25.50
2019-05-14T11:01:57.213Z,25.60
2019-05-14T11:03:02.886Z,25.80
2019-05-14T11:04:07.981Z,26.10
2019-05-14T11:05:14.269Z,26.10
2019-05-14T11:06:19.467Z,26.90
2019-05-14T11:07:25.125Z,26.70
2019-05-14T11:08:30.276Z,26.90
2019-05-14T11:09:37.912Z,27.30
2019-05-14T11:10:42.928Z,26.70
2019-05-14T11:11:48.581Z,25.40
2019-05-14T11:12:55.173Z,25.50
2019-05-14T11:14:01.043Z,26.00
2019-05-14T11:15:06.685Z,25.70
2019-05-14T11:16:12.388Z,25.70
2019-05-14T11:17:19.657Z,25.90
2019-05-14T11:18:24.879Z,26.70
2019-05-14T11:19:29.991Z,27.50
2019-05-14T11:20:35.747Z,28.30
2019-05-14T11:21:40.982Z,27.60
2019-05-14T11:22:48.933Z,27.50
2019-05-14T11:23:53.357Z,26.70
2019-05-14T11:24:59.292Z,26.50
2019-05-14T11:26:05.470Z,26.70
2019-05-14T11:27:11.083Z,26.80
2019-05-14T11:28:18.920Z,27.00
2019-05-14T11:29:23.614Z,27.20
2019-05-14T11:30:28.989Z,27.20
2019-05-14T11:31:34.727Z,27.10
2019-05-14T11:32:39.762Z,27.70
2019-05-14T11:33:45.495Z,27.40
2019-05-14T11:34:50.609Z,27.60
2019-05-14T11:35:58.449Z,27.70
2019-05-14T11:37:03.069Z,27.60
2019-05-14T11:38:27.930Z,27.90
2019-05-14T11:39:17.952Z,28.80
2019-05-14T11:40:23.137Z,28.30
2019-05-14T11:41:28.171Z,27.80
2019-05-14T11:42:33.837Z,27.30
2019-05-14T11:43:39.730Z,27.10
2019-05-14T11:44:45.740Z,27.70
2019-05-14T11:45:50.887Z,27.60
2019-05-14T11:46:59.297Z,27.40
2019-05-14T11:48:03.432Z,27.60
2019-05-14T11:49:09.129Z,27.50
2019-05-14T11:50:15.802Z,27.40
2019-05-14T11:51:53.041Z,27.00
2019-05-14T11:52:28.764Z,27.10
2019-05-14T11:53:34.582Z,27.60
2019-05-14T11:54:41.013Z,28.10
2019-05-14T11:55:49.799Z,28.40
2019-05-14T11:56:54.012Z,28.70
2019-05-14T11:57:59.641Z,29.00
2019-05-14T11:59:04.782Z,28.90
2019-05-14T12:00:12.929Z,28.90
2019-05-14T12:01:18.947Z,29.10
2019-05-14T12:02:24.867Z,29.70
2019-05-14T12:03:30.048Z,29.40
2019-05-14T12:04:35.639Z,29.10
2019-05-14T12:05:40.896Z,28.90
2019-05-14T12:06:46.754Z,28.60
2019-05-14T12:07:52.196Z,28.50
2019-05-14T12:08:58.285Z,28.20
2019-05-14T12:10:03.771Z,27.20
2019-05-14T12:11:09.692Z,27.50
2019-05-14T12:12:14.821Z,27.20
2019-05-14T12:13:20.521Z,27.40
2019-05-14T12:14:25.662Z,27.50
2019-05-14T12:15:31.390Z,27.80
2019-05-14T12:16:39.268Z,28.30
2019-05-14T12:17:44.111Z,28.30
2019-05-14T12:18:49.229Z,28.70
2019-05-14T12:19:54.812Z,29.10
2019-05-14T12:21:00.034Z,29.10
2019-05-14T12:22:08.579Z,29.20
2019-05-14T12:23:12.486Z,29.30
2019-05-14T12:24:18.484Z,29.50
2019-05-14T12:25:23.652Z,29.10
2019-05-14T12:26:29.397Z,28.90
2019-05-14T12:27:34.548Z,28.70
2019-05-14T12:28:41.273Z,28.10
2019-05-14T12:29:49.641Z,28.00
2019-05-14T12:30:53.886Z,28.00
2019-05-14T12:31:58.957Z,28.20
2019-05-14T12:33:04.665Z,28.20
2019-05-14T12:34:09.772Z,28.30
2019-05-14T12:35:15.354Z,28.50
2019-05-14T12:36:20.482Z,28.80
2019-05-14T12:37:28.795Z,28.40
2019-05-14T12:38:33.002Z,28.70
2019-05-14T12:39:38.703Z,28.90
2019-05-14T12:40:43.961Z,28.70
2019-05-14T12:41:49.590Z,29.30
2019-05-14T12:42:54.837Z,29.20
2019-05-14T12:44:00.666Z,29.40
2019-05-14T12:45:09.184Z,29.30
2019-05-14T12:46:15.578Z,28.90
2019-05-14T12:47:20.625Z,29.40
2019-05-14T12:48:26.349Z,28.90
2019-05-14T12:49:31.496Z,29.10
2019-05-14T12:50:39.271Z,28.80
2019-05-14T12:51:44.621Z,28.70
2019-05-14T12:52:50.316Z,28.80
2019-05-14T12:53:55.365Z,28.90
2019-05-14T12:55:01.045Z,29.10
2019-05-14T12:56:08.435Z,29.30
2019-05-14T12:57:13.763Z,30.10
2019-05-14T12:58:20.166Z,29.70
2019-05-14T12:59:28.338Z,29.60
2019-05-14T13:00:33.067Z,30.00
2019-05-14T13:01:38.756Z,29.00
2019-05-14T13:02:44.001Z,28.40
2019-05-14T13:03:49.622Z,27.90
2019-05-14T13:04:54.730Z,27.70
2019-05-14T13:06:00.509Z,27.20
2019-05-14T13:07:05.584Z,27.20
2019-05-14T13:08:11.590Z,27.50
2019-05-14T13:09:21.322Z,27.80
2019-05-14T13:10:24.169Z,27.80
2019-05-14T13:11:29.352Z,28.00
2019-05-14T13:12:35.724Z,28.20
2019-05-14T13:13:42.845Z,28.50
2019-05-14T13:14:49.001Z,27.80
2019-05-14T13:15:54.275Z,27.80
2019-05-14T13:16:59.991Z,28.50
2019-05-14T13:18:05.305Z,28.60
2019-05-14T13:19:11.053Z,28.50
2019-05-14T13:20:18.534Z,28.30
2019-05-14T13:21:24.413Z,28.50
2019-05-14T13:22:41.506Z,28.30
2019-05-14T13:23:38.310Z,28.10
2019-05-14T13:24:44.951Z,27.90
2019-05-14T13:25:50.709Z,28.00
2019-05-14T13:26:58.608Z,28.10
2019-05-14T13:28:03.229Z,28.40
2019-05-14T13:29:10.801Z,29.00
2019-05-14T13:30:18.523Z,29.50
2019-05-14T13:31:24.155Z,30.00
2019-05-14T13:32:30.216Z,30.00
2019-05-14T13:33:35.312Z,30.00
2019-05-14T13:34:42.070Z,30.60
2019-05-14T13:35:48.431Z,31.40
2019-05-14T13:36:54.370Z,30.80
2019-05-14T13:37:59.536Z,29.70
2019-05-14T13:39:09.293Z,29.90
2019-05-14T13:40:14.660Z,29.60
2019-05-14T13:41:20.342Z,30.00
2019-05-14T13:42:25.488Z,29.80
2019-05-14T13:43:31.284Z,29.30
2019-05-14T13:44:38.516Z,29.10
2019-05-14T13:45:43.917Z,29.00
2019-05-14T13:46:49.047Z,28.70
2019-05-14T13:47:54.872Z,28.50
2019-05-14T13:49:01.045Z,28.30
2019-05-14T13:50:08.475Z,27.70
2019-05-14T13:51:13.901Z,27.80
2019-05-14T13:52:19.609Z,27.70
2019-05-14T13:53:25.794Z,27.70
2019-05-14T13:54:32.064Z,28.00
2019-05-14T13:55:44.082Z,28.50
2019-05-14T13:56:44.708Z,28.80
2019-05-14T13:57:49.914Z,29.20
2019-05-14T13:58:55.593Z,29.60
2019-05-14T14:00:00.652Z,29.70
2019-05-14T14:01:09.699Z,29.50
2019-05-14T14:02:13.374Z,28.10
2019-05-14T14:03:19.894Z,27.50
2019-05-14T14:04:25.456Z,26.30
2019-05-14T14:05:31.116Z,25.90
2019-05-14T14:06:39.198Z,26.40
2019-05-14T14:07:44.797Z,26.90
2019-05-14T14:08:50.280Z,26.70
2019-05-14T14:09:55.954Z,26.40